Time;durP1;ratioP1;P1;durP2;ratioP2;P2;SDS_P1;SDS_P2;PMS_P1;PMS_P2;Temp;Humidity;BMP_temperature;BMP_pressure;BME280_temperature;BME280_humidity;BME280_pressure;Samples;Min_cycle;Max_cycle;Signal;HPM_P1;HPM_P2
2022/08/12 04:06:49;;;;;;;;;13.33;11.33;;;;;;;;6021290;31;10008096;-61
2022/08/12 04:13:15;;;;;;;;;13.67;13.33;;;;;;;;6489943;39;8897;-62
2022/08/12 04:19:22;;;;;;;;;14.67;14.67;;;;;;;;6490206;31;8863;-62
2022/08/12 10:03:25;;;;;;;;;10.50;10.50;;;;;;;;6492082;39;8987;-62
2022/08/12 10:09:33;;;;;;;;;8.75;8.75;;;;;;;;6487040;39;8964;-61
2022/08/12 10:15:55;;;;;;;;;18.00;12.50;;;;;;;;6487411;39;9006;-61
2022/08/12 10:22:05;;;;;;;;;10.75;10.75;;;;;;;;6488145;31;9020;-62
2022/08/12 10:35:04;;;;;;;;;15.25;14.50;;;;;;;;6488594;47;8990;-63
2022/08/12 10:47:52;;;;;;;;;9.00;9.00;;;;;;;;6489474;46;9059;-63
2022/08/12 10:54:15;;;;;;;;;9.00;9.00;;;;;;;;6488566;39;9623;-63
2022/08/12 11:00:22;;;;;;;;;9.75;9.75;;;;;;;;6489378;31;9237;-63
2022/08/12 11:06:49;;;;;;;;;13.25;12.75;;;;;;;;6486542;31;9105;-62
2022/08/12 11:13:12;;;;;;;;;12.00;12.00;;;;;;;;6487898;46;9153;-63
2022/08/12 11:19:17;;;;;;;;;21.25;21.25;;;;;;;;6488584;31;8988;-61
2022/08/12 11:25:25;;;;;;;;;11.50;11.50;;;;;;;;6489583;39;8972;-60
2022/08/12 11:31:48;;;;;;;;;10.50;10.50;;;;;;;;6489325;39;9002;-60
2022/08/12 11:38:04;;;;;;;;;10.50;10.25;;;;;;;;6488262;46;9050;-62
2022/08/12 11:44:10;;;;;;;;;12.25;11.25;;;;;;;;6489457;39;9082;-61
2022/08/12 11:50:33;;;;;;;;;10.00;10.00;;;;;;;;6489179;39;9068;-61
2022/08/12 11:56:44;;;;;;;;;14.00;13.00;;;;;;;;6489211;39;8971;-62
2022/08/12 12:03:02;;;;;;;;;12.25;12.25;;;;;;;;6488865;31;9019;-62
2022/08/12 12:09:05;;;;;;;;;9.75;9.75;;;;;;;;6488585;39;9137;-62
2022/08/12 12:15:11;;;;;;;;;11.50;11.00;;;;;;;;6533181;36;9097;-62
2022/08/12 12:21:42;;;;;;;;;13.00;12.50;;;;;;;;6487258;31;9069;-62
2022/08/12 12:27:52;;;;;;;;;9.50;9.50;;;;;;;;6488215;39;9034;-63
2022/08/12 12:34:07;;;;;;;;;12.00;12.00;;;;;;;;6488151;46;9002;-62
2022/08/12 12:40:12;;;;;;;;;13.00;9.25;;;;;;;;6488416;39;9160;-62
2022/08/12 12:46:16;;;;;;;;;11.25;11.25;;;;;;;;6488145;46;9096;-62
2022/08/12 12:52:19;;;;;;;;;9.75;9.75;;;;;;;;6488652;46;9012;-62
2022/08/12 12:58:28;;;;;;;;;15.75;14.00;;;;;;;;6488128;31;9117;-63
2022/08/12 13:04:33;;;;;;;;;7.75;7.75;;;;;;;;6486343;46;9021;-62
2022/08/12 13:10:41;;;;;;;;;19.50;17.50;;;;;;;;6486035;39;8987;-61
2022/08/12 13:16:53;;;;;;;;;12.50;12.50;;;;;;;;6487382;31;9159;-62
2022/08/12 13:22:59;;;;;;;;;10.00;10.00;;;;;;;;6488290;31;9050;-63
2022/08/12 13:29:28;;;;;;;;;23.25;22.75;;;;;;;;6484702;39;8992;-62
2022/08/12 13:35:34;;;;;;;;;9.75;8.00;;;;;;;;6482613;31;8939;-61
2022/08/12 13:41:58;;;;;;;;;9.50;9.50;;;;;;;;6483540;39;9035;-60
2022/08/12 13:48:04;;;;;;;;;14.00;11.75;;;;;;;;6487471;39;8903;-62
2022/08/12 13:54:08;;;;;;;;;7.00;7.00;;;;;;;;6488391;39;8980;-61
2022/08/12 14:00:17;;;;;;;;;8.75;8.75;;;;;;;;6488786;31;9022;-62
2022/08/12 14:06:21;;;;;;;;;12.00;11.25;;;;;;;;6489146;39;9565;-61
2022/08/12 14:12:35;;;;;;;;;12.00;7.75;;;;;;;;6488612;39;8959;-63
2022/08/12 14:18:38;;;;;;;;;9.67;9.67;;;;;;;;6488241;31;8929;-63
2022/08/12 14:24:41;;;;;;;;;9.75;9.75;;;;;;;;6488364;31;9042;-62
2022/08/12 14:30:55;;;;;;;;;10.25;9.25;;;;;;;;6488515;31;8966;-62
2022/08/12 14:37:05;;;;;;;;;10.00;10.00;;;;;;;;6488423;39;9071;-62
2022/08/12 14:43:14;;;;;;;;;12.75;12.75;;;;;;;;6487840;31;8974;-62
2022/08/12 14:49:18;;;;;;;;;12.25;9.50;;;;;;;;6488308;31;8960;-62
2022/08/12 14:55:41;;;;;;;;;10.50;9.75;;;;;;;;6487057;31;9622;-62
2022/08/12 15:02:07;;;;;;;;;10.50;9.25;;;;;;;;6488438;39;9000;-63
2022/08/12 15:08:12;;;;;;;;;10.75;10.75;;;;;;;;6486960;31;8962;-62
2022/08/12 15:14:26;;;;;;;;;12.25;12.25;;;;;;;;6488418;39;9095;-61
2022/08/12 15:20:33;;;;;;;;;11.50;11.50;;;;;;;;6487654;47;8996;-62
2022/08/12 15:26:41;;;;;;;;;14.00;14.00;;;;;;;;6488691;39;8950;-61
2022/08/12 15:33:07;;;;;;;;;13.00;11.00;;;;;;;;6491348;31;9026;-62
2022/08/12 15:39:16;;;;;;;;;12.75;11.50;;;;;;;;6489501;39;9122;-62
2022/08/12 15:45:19;;;;;;;;;16.00;13.25;;;;;;;;6490266;31;8960;-62
2022/08/12 15:51:31;;;;;;;;;13.25;12.75;;;;;;;;6489502;39;9061;-61
2022/08/12 15:57:56;;;;;;;;;20.75;20.75;;;;;;;;6489213;39;9034;-61
2022/08/12 16:03:58;;;;;;;;;21.50;19.50;;;;;;;;6489857;39;9003;-62
2022/08/12 16:10:03;;;;;;;;;23.00;23.00;;;;;;;;6490324;39;8938;-62
2022/08/12 16:16:09;;;;;;;;;25.50;21.75;;;;;;;;6491134;31;8966;-62
2022/08/12 16:22:27;;;;;;;;;24.00;22.75;;;;;;;;6488684;31;9104;-61
2022/08/12 16:28:30;;;;;;;;;27.00;23.75;;;;;;;;6488744;46;8919;-63
2022/08/12 16:34:35;;;;;;;;;23.50;23.00;;;;;;;;6489666;31;9160;-62
2022/08/12 16:40:55;;;;;;;;;24.50;23.50;;;;;;;;6489453;31;8919;-61
2022/08/12 16:46:59;;;;;;;;;23.00;21.50;;;;;;;;6488881;46;8978;-62
2022/08/12 16:53:04;;;;;;;;;21.00;19.25;;;;;;;;6488697;31;8959;-62
2022/08/12 16:59:08;;;;;;;;;25.00;22.50;;;;;;;;6489547;39;9126;-61
2022/08/12 17:05:18;;;;;;;;;20.50;18.50;;;;;;;;6488532;31;8979;-62
2022/08/12 17:11:23;;;;;;;;;25.75;25.75;;;;;;;;6489552;31;8938;-62
2022/08/12 17:17:31;;;;;;;;;18.50;18.50;;;;;;;;6488935;39;9614;-61
2022/08/12 17:23:49;;;;;;;;;19.00;17.25;;;;;;;;6488914;39;9822;-61
2022/08/12 17:29:57;;;;;;;;;24.00;21.25;;;;;;;;6490478;31;8950;-62
2022/08/12 17:36:06;;;;;;;;;21.75;20.00;;;;;;;;6489283;39;9002;-62
2022/08/12 17:42:14;;;;;;;;;18.00;16.50;;;;;;;;6490036;31;9175;-61
2022/08/12 17:48:36;;;;;;;;;24.75;20.50;;;;;;;;6488212;46;9002;-62
2022/08/12 17:54:41;;;;;;;;;23.75;22.50;;;;;;;;6489586;31;9578;-61
2022/08/12 18:00:44;;;;;;;;;21.25;20.25;;;;;;;;6488369;31;9614;-63
2022/08/12 18:06:54;;;;;;;;;18.00;18.00;;;;;;;;6488503;39;8985;-62
2022/08/12 18:13:00;;;;;;;;;22.75;22.25;;;;;;;;6489296;31;8982;-61
2022/08/12 18:19:04;;;;;;;;;19.00;19.00;;;;;;;;6487869;39;9002;-63
2022/08/12 18:26:20;;;;;;;;;22.00;19.75;;;;;;;;6489097;31;8971;-63
2022/08/12 18:31:57;;;;;;;;;23.50;20.50;;;;;;;;6487375;39;8970;-62
2022/08/12 18:38:22;;;;;;;;;19.75;17.50;;;;;;;;6488513;47;9045;-62
2022/08/12 18:44:26;;;;;;;;;22.00;20.00;;;;;;;;6488683;31;9077;-62
2022/08/12 18:50:29;;;;;;;;;20.25;19.50;;;;;;;;6489275;31;9158;-61
2022/08/12 18:56:53;;;;;;;;;22.00;19.50;;;;;;;;6488402;31;9094;-61
2022/08/12 19:02:56;;;;;;;;;21.75;20.25;;;;;;;;6489607;46;9018;-63
2022/08/12 19:09:02;;;;;;;;;27.00;21.25;;;;;;;;6491230;31;8942;-62
2022/08/12 19:15:10;;;;;;;;;24.75;24.75;;;;;;;;6489777;39;8962;-61
2022/08/12 19:21:16;;;;;;;;;24.75;23.00;;;;;;;;6490044;39;9705;-61
2022/08/12 19:27:23;;;;;;;;;21.50;20.75;;;;;;;;6489487;39;9004;-62
2022/08/12 19:33:36;;;;;;;;;22.25;22.00;;;;;;;;6489598;39;9050;-62
2022/08/12 19:39:52;;;;;;;;;24.75;22.25;;;;;;;;6488346;46;9006;-62
2022/08/12 19:46:16;;;;;;;;;23.00;20.00;;;;;;;;6489507;46;8954;-62
2022/08/12 19:52:33;;;;;;;;;24.50;24.50;;;;;;;;6489239;39;9139;-62
2022/08/12 19:58:38;;;;;;;;;24.33;19.67;;;;;;;;6489832;31;9066;-61
2022/08/12 20:04:51;;;;;;;;;26.75;24.50;;;;;;;;6490116;31;9081;-62
2022/08/12 20:11:15;;;;;;;;;24.75;23.25;;;;;;;;6489552;46;8985;-62
2022/08/12 20:17:37;;;;;;;;;28.75;26.00;;;;;;;;6489989;46;9087;-62
2022/08/12 20:23:52;;;;;;;;;20.67;20.00;;;;;;;;6488825;46;8927;-60
2022/08/12 20:30:04;;;;;;;;;25.25;24.00;;;;;;;;6490507;31;8856;-62
2022/08/12 20:36:07;;;;;;;;;29.67;26.00;;;;;;;;6489752;39;8931;-62
2022/08/12 20:42:30;;;;;;;;;22.50;22.25;;;;;;;;6490089;39;8855;-62
2022/08/12 20:48:34;;;;;;;;;22.75;20.50;;;;;;;;6489233;46;8908;-63
2022/08/12 20:54:40;;;;;;;;;20.75;19.25;;;;;;;;6489154;39;8946;-61
2022/08/12 21:00:47;;;;;;;;;29.00;26.00;;;;;;;;6489072;31;8994;-62
2022/08/12 21:06:55;;;;;;;;;26.75;24.25;;;;;;;;6488677;39;9546;-62
2022/08/12 21:12:58;;;;;;;;;26.75;22.50;;;;;;;;6489307;46;8859;-61
2022/08/12 21:19:00;;;;;;;;;26.67;24.33;;;;;;;;6488922;46;8917;-63
2022/08/12 21:25:09;;;;;;;;;24.33;23.67;;;;;;;;6487946;46;9111;-61
2022/08/12 21:31:20;;;;;;;;;23.33;22.67;;;;;;;;6488561;39;8907;-61
2022/08/12 21:37:43;;;;;;;;;21.75;19.75;;;;;;;;6489107;31;8965;-61
2022/08/12 21:43:56;;;;;;;;;26.33;24.67;;;;;;;;6488717;39;8907;-62
2022/08/12 21:50:04;;;;;;;;;27.67;25.33;;;;;;;;6488891;39;8859;-60
2022/08/12 21:56:09;;;;;;;;;25.33;24.33;;;;;;;;6489130;46;8852;-61
2022/08/12 22:09:00;;;;;;;;;30.00;26.67;;;;;;;;6488906;39;8823;-62
2022/08/12 22:15:06;;;;;;;;;22.33;21.00;;;;;;;;6488495;31;8898;-61
2022/08/12 22:21:11;;;;;;;;;23.67;22.67;;;;;;;;6487748;47;8927;-61
2022/08/12 22:27:17;;;;;;;;;22.67;22.00;;;;;;;;6489219;47;8919;-62
2022/08/12 22:33:36;;;;;;;;;25.67;22.33;;;;;;;;6489082;39;8962;-61
2022/08/12 22:39:57;;;;;;;;;25.67;23.67;;;;;;;;6492054;39;8925;-60
2022/08/12 22:52:31;;;;;;;;;27.67;25.33;;;;;;;;6491186;39;8927;-63
2022/08/12 22:58:38;;;;;;;;;23.75;19.75;;;;;;;;6490287;39;8866;-61
2022/08/12 23:04:41;;;;;;;;;27.00;26.00;;;;;;;;6490598;46;8875;-62
2022/08/12 23:10:45;;;;;;;;;26.67;24.00;;;;;;;;6489721;39;8899;-61
2022/08/12 23:16:50;;;;;;;;;23.00;23.00;;;;;;;;6489789;46;8907;-61
2022/08/12 23:22:53;;;;;;;;;24.67;22.33;;;;;;;;6489969;31;8931;-61
2022/08/12 23:29:15;;;;;;;;;30.67;23.00;;;;;;;;6489869;46;8858;-61
2022/08/12 23:35:42;;;;;;;;;24.67;20.67;;;;;;;;6490764;39;8915;-62
2022/08/12 23:42:07;;;;;;;;;18.00;17.67;;;;;;;;6490567;31;8919;-61
2022/08/12 23:48:19;;;;;;;;;22.67;21.00;;;;;;;;6490337;46;8886;-61
2022/08/12 23:54:38;;;;;;;;;27.33;25.67;;;;;;;;6490253;39;8891;-61
